»·PEaware :: UAL555 KSFO-KSAN

UAL555 :: KSFO-KSAN

FLIGHT INFORMATION

Flight Status: Arrived
Operator:
United Airlines
More flights by this operator :: More flights under this callsign
Pilot: Jason P. (20596)
Aircraft: AIRBUS A319
(A319)
More flights by this aircraft type
Origin: KSFO San Francisco Intl
United States
Destination: KSAN San Diego Intl-Lindbergh
United States
More flights between these airports :: More routes between these airports
Route: +OFFSH2 MCKEY LAX COMIX2
File this flight plan on PilotEdge
Remarks:
Altitude:
(Current/Filed)
33,000ft
Speed:
(Current/Filed)
460kts
Departed: 06-Aug-19 08:26 AM
Arrived: 06-Aug-19 09:41 AM
Distance/Time
Traveled:
387nm/1:15
Distance/Time
To Go:
Arrived

Flight Plot

Page will automatically refresh every two minutes.

Flight plan parsing failed; only flown route is shown


Map Options




Map Legend


Flown Route
Filed Route
Departure Airport
Arrival Airport
Navaid (VOR, NDB)
Fix

Horizontal Profiles

Position Reports

Time Latitude Longitude Heading Altitude Ground
Speed
06-Aug-19 07:39 37.617546 -122.380428 280 27ft 0kts
06-Aug-19 07:40 37.617546 -122.380428 280 27ft 0kts
06-Aug-19 07:41 37.617546 -122.380428 280 27ft 0kts
06-Aug-19 07:42 37.617546 -122.380428 280 27ft 0kts
06-Aug-19 07:43 37.617546 -122.380428 280 27ft 0kts
06-Aug-19 07:44 37.617546 -122.380428 280 27ft 0kts
06-Aug-19 07:45 37.617546 -122.380428 280 27ft 0kts
06-Aug-19 07:46 37.617546 -122.380428 280 27ft 0kts
06-Aug-19 07:47 37.617546 -122.380428 280 27ft 0kts
06-Aug-19 07:48 37.617546 -122.380428 280 27ft 0kts
06-Aug-19 07:49 37.617546 -122.380428 280 27ft 0kts
06-Aug-19 07:50 37.617546 -122.380428 280 27ft 0kts
06-Aug-19 07:51 37.617546 -122.380428 280 27ft 0kts
06-Aug-19 07:52 37.617546 -122.380428 280 27ft 0kts
06-Aug-19 07:53 37.617546 -122.380428 280 27ft 0kts
06-Aug-19 07:54 37.617546 -122.380428 280 27ft 0kts
06-Aug-19 07:55 37.617546 -122.380428 280 27ft 0kts
06-Aug-19 07:56 37.617546 -122.380428 280 27ft 0kts
06-Aug-19 07:57 37.617546 -122.380428 280 27ft 0kts
06-Aug-19 07:58 37.617546 -122.380428 280 27ft 0kts
06-Aug-19 07:59 37.617546 -122.380428 280 27ft 0kts
06-Aug-19 08:00 37.617546 -122.380428 280 27ft 0kts
06-Aug-19 08:01 37.617546 -122.380428 280 27ft 0kts
06-Aug-19 08:02 37.617546 -122.380428 280 27ft 0kts
06-Aug-19 08:03 37.617546 -122.380428 280 27ft 0kts
06-Aug-19 08:04 37.617546 -122.380428 280 27ft 0kts
06-Aug-19 08:05 37.617546 -122.380428 280 27ft 0kts
06-Aug-19 08:06 37.617546 -122.380428 280 27ft 0kts
06-Aug-19 08:07 37.617546 -122.380428 280 27ft 0kts
06-Aug-19 08:08 37.617546 -122.380428 280 27ft 0kts
06-Aug-19 08:09 37.617546 -122.380428 280 27ft 0kts
06-Aug-19 08:10 37.617546 -122.380428 280 27ft 0kts
06-Aug-19 08:11 37.617546 -122.380428 280 27ft 0kts
06-Aug-19 08:12 37.617546 -122.380428 280 27ft 0kts
06-Aug-19 08:13 37.617546 -122.380428 280 27ft 0kts
06-Aug-19 08:14 37.617546 -122.380428 280 27ft 0kts
06-Aug-19 08:15 37.617527 -122.380288 280 27ft 2kts
06-Aug-19 08:16 37.617408 -122.379446 279 27ft 3kts
06-Aug-19 08:17 37.617351 -122.379034 279 27ft 0kts
06-Aug-19 08:18 37.617351 -122.379035 279 27ft 0kts
06-Aug-19 08:19 37.617074 -122.379349 203 27ft 7kts
06-Aug-19 08:20 37.614003 -122.381373 205 27ft 19kts
06-Aug-19 08:21 37.609931 -122.384066 192 27ft 7kts
06-Aug-19 08:22 37.609309 -122.383173 116 27ft 0kts
06-Aug-19 08:23 37.609131 -122.382091 33 27ft 7kts
06-Aug-19 08:24 37.610065 -122.381475 28 27ft 25kts
06-Aug-19 08:25 37.643226 -122.361148 16 821ft 188kts
06-Aug-19 08:26 37.702856 -122.365521 348 3070ft 248kts
06-Aug-19 08:27 37.730160 -122.438064 242 6093ft 273kts
06-Aug-19 08:28 37.670073 -122.498633 215 9088ft 287kts
06-Aug-19 08:29 37.602484 -122.561880 215 11260ft 328kts
06-Aug-19 08:30 37.523502 -122.634903 215 13226ft 363kts
06-Aug-19 08:31 37.435248 -122.698662 199 15753ft 372kts
06-Aug-19 08:32 37.332860 -122.705882 164 18064ft 386kts
06-Aug-19 08:33 37.228633 -122.666301 166 20222ft 397kts
06-Aug-19 08:34 37.120848 -122.628612 165 22222ft 406kts
06-Aug-19 08:35 37.010821 -122.589492 165 23986ft 415kts
06-Aug-19 08:36 36.897926 -122.555368 169 25619ft 421kts
06-Aug-19 08:37 36.782498 -122.525653 169 27151ft 426kts
06-Aug-19 08:38 36.665712 -122.495390 170 28527ft 430kts
06-Aug-19 08:39 36.550005 -122.465471 170 30238ft 419kts
06-Aug-19 08:40 36.438176 -122.431328 159 31878ft 412kts
06-Aug-19 08:41 36.354082 -122.333542 135 33083ft 420kts
06-Aug-19 08:43 36.279215 -122.223342 137 33068ft 417kts
06-Aug-19 08:44 36.203866 -122.113757 136 33062ft 417kts
06-Aug-19 08:45 36.128504 -122.004742 137 33005ft 416kts
06-Aug-19 08:46 36.053568 -121.896352 137 33003ft 414kts
06-Aug-19 08:47 35.978009 -121.787645 137 33034ft 418kts
06-Aug-19 08:48 35.902948 -121.679772 137 34269ft 413kts
06-Aug-19 08:49 35.827885 -121.572445 137 35073ft 411kts
06-Aug-19 08:50 35.752922 -121.465460 137 35056ft 412kts
06-Aug-19 08:51 35.677890 -121.358908 137 35041ft 412kts
06-Aug-19 08:52 35.602696 -121.252237 137 35001ft 411kts
06-Aug-19 08:53 35.528007 -121.146715 137 34999ft 409kts
06-Aug-19 08:54 35.456513 -121.037330 131 34999ft 415kts
06-Aug-19 08:55 35.391260 -120.920380 131 35006ft 415kts
06-Aug-19 08:56 35.325147 -120.804083 131 35013ft 416kts
06-Aug-19 08:57 35.259056 -120.687726 131 35016ft 417kts
06-Aug-19 08:58 35.192530 -120.571062 131 35014ft 417kts
06-Aug-19 08:59 35.126082 -120.454995 131 35017ft 418kts
06-Aug-19 09:00 35.059329 -120.338739 131 35012ft 418kts
06-Aug-19 09:01 34.992216 -120.222127 131 35016ft 419kts
06-Aug-19 09:02 34.925227 -120.106232 131 35011ft 417kts
06-Aug-19 09:02 34.869451 -120.010114 131 35009ft 416kts
06-Aug-19 09:04 34.791393 -119.875879 131 35006ft 416kts
06-Aug-19 09:05 34.724686 -119.761386 131 35002ft 416kts
06-Aug-19 09:05 34.668881 -119.666192 131 35017ft 415kts
06-Aug-19 09:07 34.590738 -119.533030 131 35017ft 415kts
06-Aug-19 09:07 34.534846 -119.438152 131 35018ft 414kts
06-Aug-19 09:08 34.467607 -119.324349 131 35020ft 414kts
06-Aug-19 09:10 34.388998 -119.191795 131 35015ft 415kts
06-Aug-19 09:10 34.332819 -119.097311 131 34996ft 416kts
06-Aug-19 09:11 34.264952 -118.983456 131 34989ft 418kts
06-Aug-19 09:12 34.196525 -118.869145 131 34990ft 419kts
06-Aug-19 09:13 34.128477 -118.755740 131 34991ft 415kts
06-Aug-19 09:14 34.060518 -118.643004 131 35034ft 421kts
06-Aug-19 09:15 33.991234 -118.528167 131 35020ft 424kts
06-Aug-19 09:16 33.920973 -118.416126 136 32939ft 423kts
06-Aug-19 09:17 33.839155 -118.310894 136 30057ft 435kts
06-Aug-19 09:18 33.756553 -118.203663 135 27540ft 433kts
06-Aug-19 09:19 33.676313 -118.097927 134 25388ft 421kts
06-Aug-19 09:20 33.598221 -117.995827 134 23243ft 410kts
06-Aug-19 09:21 33.520326 -117.898085 137 21113ft 399kts
06-Aug-19 09:22 33.441185 -117.806911 138 18993ft 390kts
06-Aug-19 09:23 33.361317 -117.721301 139 17000ft 378kts
06-Aug-19 09:24 33.284111 -117.638861 139 15097ft 368kts
06-Aug-19 09:25 33.208743 -117.559008 139 13216ft 356kts
06-Aug-19 09:26 33.135070 -117.482264 142 11988ft 350kts
06-Aug-19 09:27 33.058306 -117.418212 145 11784ft 315kts
06-Aug-19 09:28 32.990945 -117.361644 145 11426ft 278kts
06-Aug-19 09:29 32.929445 -117.310282 145 10524ft 270kts
06-Aug-19 09:30 32.867410 -117.258536 145 9358ft 272kts
06-Aug-19 09:31 32.809153 -117.202112 116 8112ft 273kts
06-Aug-19 09:32 32.790555 -117.115289 106 6653ft 274kts
06-Aug-19 09:33 32.765402 -117.028415 115 4781ft 276kts
06-Aug-19 09:34 32.728191 -116.953682 149 3250ft 254kts
06-Aug-19 09:35 32.667059 -116.969250 235 3196ft 239kts
06-Aug-19 09:36 32.678013 -117.038992 311 2750ft 227kts
06-Aug-19 09:37 32.711379 -117.098245 297 1460ft 198kts
06-Aug-19 09:38 32.724431 -117.152661 288 575ft 154kts
06-Aug-19 09:39 32.735343 -117.197168 287 29ft 77kts
06-Aug-19 09:40 32.735460 -117.203413 250 29ft 9kts
06-Aug-19 09:41 32.734177 -117.203336 267 29ft 1kts
06-Aug-19 09:42 32.734176 -117.203413 268 29ft 0kts
06-Aug-19 09:43 32.734176 -117.203413 268 29ft 0kts
06-Aug-19 09:44 32.734176 -117.203413 268 29ft 0kts
06-Aug-19 09:45 32.734176 -117.203413 268 29ft 0kts
06-Aug-19 09:46 32.734176 -117.203413 268 29ft 0kts
06-Aug-19 09:47 32.734176 -117.203413 268 29ft 0kts
06-Aug-19 09:48 32.734176 -117.203413 268 29ft 0kts
06-Aug-19 09:49 32.734176 -117.203413 268 29ft 0kts
06-Aug-19 09:50 32.734176 -117.203413 268 29ft 0kts
06-Aug-19 09:51 32.734176 -117.203413 268 29ft 0kts
06-Aug-19 09:52 32.734176 -117.203413 268 29ft 0kts
06-Aug-19 09:53 32.734176 -117.203413 268 29ft 0kts
06-Aug-19 09:54 32.734176 -117.203413 268 29ft 0kts
06-Aug-19 09:55 32.734176 -117.203413 268 29ft 0kts

Navigation Log

Ident Type
Flight plan parsing failed, navigation log unavailable